This is the latest recevied weather packets stored in our database for station/object PD0HRY-12. If no packets are shown the sender has not sent any weather packets the latest 10 day(s).
| Time | Temp. | Humidity | Pressure | Rain* | Wind** | Luminosity | Snow |
|---|---|---|---|---|---|---|---|
| 1777739404 | 24.44° C | 49% | 1007 hPa | - | - | - | - |
| 1777737602 | 25.56° C | 45% | 1008 hPa | - | - | - | - |
| 1777735801 | 25.56° C | 47% | 1008 hPa | - | - | - | - |
| 1777734004 | 25° C | 47% | 1009 hPa | - | - | - | - |
| 1777732202 | 23.33° C | 51% | 1009 hPa | - | - | - | - |
| 1777730400 | 23.89° C | 50% | 1009 hPa | - | - | - | - |
| 1777728604 | 23.33° C | 50% | 1009 hPa | - | - | - | - |
| 1777726802 | 23.33° C | 51% | 1009 hPa | - | - | - | - |
| 1777725001 | 22.78° C | 52% | 1010 hPa | - | - | - | - |
| 1777723204 | 22.78° C | 52% | 1010 hPa | - | - | - | - |
| 1777721402 | 22.22° C | 52% | 1010 hPa | - | - | - | - |
| 1777719600 | 22.22° C | 52% | 1010 hPa | - | - | - | - |
| 1777717804 | 22.22° C | 52% | 1011 hPa | - | - | - | - |
| 1777716002 | 21.11° C | 50% | 1011 hPa | - | - | - | - |
| 1777714201 | 20° C | 50% | 1011 hPa | - | - | - | - |
| 1777712404 | 19.44° C | 48% | 1011 hPa | - | - | - | - |
| 1777710602 | 17.22° C | 51% | 1011 hPa | - | - | - | - |
| 1777708801 | 15° C | 57% | 1011 hPa | - | - | - | - |
| 1777707004 | 14.44° C | 59% | 1012 hPa | - | - | - | - |
| 1777705202 | 16.11° C | 50% | 1011 hPa | - | - | - | - |
| 1777703400 | 16.67° C | 50% | 1011 hPa | - | - | - | - |
| 1777701604 | 14.44° C | 54% | 1011 hPa | - | - | - | - |
| 1777699802 | 13.89° C | 56% | 1011 hPa | - | - | - | - |
| 1777698000 | 12.78° C | 59% | 1011 hPa | - | - | - | - |
| 1777696204 | 10.56° C | 68% | 1011 hPa | - | - | - | - |
* Rain since midnight (hover to see other rain measurements)
** Current wind speed in m/s (hover to see current wind gust speed)